createdAt,value
2023-04-18T00:05:03.772Z,10.70
2023-04-18T00:15:04.074Z,10.60
2023-04-18T00:25:03.273Z,10.50
2023-04-18T00:35:02.224Z,10.40
2023-04-18T00:45:01.264Z,10.20
2023-04-18T00:55:00.286Z,10.00
2023-04-18T01:04:59.255Z,9.90
2023-04-18T01:15:01.969Z,9.70
2023-04-18T01:25:01.077Z,9.60
2023-04-18T01:35:00.620Z,9.50
2023-04-18T01:44:59.224Z,9.40
2023-04-18T02:06:01.253Z,9.10
2023-04-18T02:16:00.343Z,8.90
2023-04-18T02:25:59.226Z,8.90
2023-04-18T02:35:58.156Z,8.80
2023-04-18T02:45:57.314Z,8.80
2023-04-18T02:55:58.179Z,8.70
2023-04-18T03:05:57.772Z,8.60
2023-04-18T03:15:58.737Z,8.50
2023-04-18T03:25:59.956Z,8.40
2023-04-18T03:35:59.503Z,8.20
2023-04-18T03:45:59.031Z,8.20
2023-04-18T03:56:00.258Z,8.10
2023-04-18T04:05:59.339Z,8.10
2023-04-18T04:15:58.547Z,8.10
2023-04-18T04:26:02.866Z,8.00
2023-04-18T04:36:03.481Z,8.00
2023-04-18T04:46:03.549Z,8.00
2023-04-18T04:56:07.013Z,8.00
2023-04-18T05:06:06.465Z,8.10
2023-04-18T05:16:05.480Z,8.30
2023-04-18T05:26:04.158Z,8.50
2023-04-18T05:36:03.309Z,8.80
2023-04-18T05:46:02.432Z,9.20
2023-04-18T05:56:01.327Z,9.20
2023-04-18T06:06:00.347Z,9.20
2023-04-18T06:15:59.357Z,9.30
2023-04-18T06:25:58.898Z,9.50
2023-04-18T06:35:58.932Z,9.70
2023-04-18T06:45:58.202Z,9.90
2023-04-18T06:55:57.379Z,10.00
2023-04-18T07:05:56.384Z,10.00
2023-04-18T07:15:55.450Z,10.90
2023-04-18T07:25:54.487Z,11.50
2023-04-18T07:35:53.366Z,12.10
2023-04-18T07:45:52.370Z,12.40
2023-04-18T07:55:51.328Z,12.70
2023-04-18T08:05:51.469Z,12.80
2023-04-18T08:15:50.254Z,12.80
2023-04-18T08:25:49.467Z,13.00
2023-04-18T08:35:48.413Z,13.00
2023-04-18T08:45:47.897Z,12.90
2023-04-18T08:55:49.258Z,12.90
2023-04-18T09:05:48.444Z,13.00
2023-04-18T09:15:49.265Z,13.60
2023-04-18T09:25:48.288Z,14.30
2023-04-18T09:35:47.507Z,14.90
2023-04-18T09:45:46.512Z,15.40
2023-04-18T09:55:45.637Z,15.60
2023-04-18T10:05:45.315Z,16.10
2023-04-18T10:15:44.539Z,16.10
2023-04-18T10:25:44.393Z,16.40
2023-04-18T10:35:43.309Z,17.30
2023-04-18T10:45:42.583Z,16.50
2023-04-18T10:55:41.322Z,15.60
2023-04-18T11:05:40.378Z,16.10
2023-04-18T11:15:40.335Z,17.00
2023-04-18T11:25:40.095Z,17.30
2023-04-18T11:35:39.510Z,17.70
2023-04-18T11:45:38.451Z,18.00
2023-04-18T11:55:37.484Z,18.20
2023-04-18T12:05:36.917Z,19.00
2023-04-18T12:15:36.487Z,20.00
2023-04-18T12:25:35.917Z,19.80
2023-04-18T12:35:34.384Z,19.00
2023-04-18T12:45:33.522Z,17.80
2023-04-18T12:55:32.669Z,17.70
2023-04-18T13:05:33.986Z,17.70
2023-04-18T13:15:32.677Z,17.90
2023-04-18T13:25:31.650Z,17.80
2023-04-18T13:35:30.586Z,18.00
2023-04-18T13:45:29.822Z,18.00
2023-04-18T13:55:28.525Z,18.30
2023-04-18T14:05:27.711Z,18.10
2023-04-18T14:15:26.494Z,17.10
2023-04-18T14:25:25.552Z,17.10
2023-04-18T14:35:25.016Z,17.60
2023-04-18T14:45:23.532Z,18.30
2023-04-18T14:55:22.553Z,18.10
2023-04-18T15:05:23.321Z,18.20
2023-04-18T15:15:24.572Z,17.90
2023-04-18T15:25:23.597Z,18.10
2023-04-18T15:35:22.619Z,18.40
2023-04-18T15:45:21.677Z,18.10
2023-04-18T15:55:20.932Z,18.40
2023-04-18T16:05:19.794Z,18.20
2023-04-18T16:15:18.722Z,18.50
2023-04-18T16:25:18.655Z,18.00
2023-04-18T16:35:17.818Z,17.60
2023-04-18T16:45:16.975Z,17.70
2023-04-18T16:55:15.612Z,17.80
2023-04-18T17:05:14.757Z,17.60
2023-04-18T17:15:13.700Z,19.40
2023-04-18T17:25:12.846Z,19.20
2023-04-18T17:35:11.946Z,18.40
2023-04-18T17:45:10.836Z,16.80
2023-04-18T17:55:09.685Z,16.20
2023-04-18T18:05:10.522Z,15.70
2023-04-18T18:15:09.846Z,15.20
2023-04-18T18:25:08.673Z,14.70
2023-04-18T18:35:07.794Z,14.40
2023-04-18T18:45:07.118Z,14.00
2023-04-18T18:55:05.961Z,13.70
2023-04-18T19:05:05.409Z,13.50
2023-04-18T19:15:04.744Z,13.20
2023-04-18T19:25:04.176Z,13.00
2023-04-18T19:35:04.219Z,12.90
2023-04-18T19:45:02.926Z,12.80
2023-04-18T19:55:01.818Z,12.90
2023-04-18T20:05:00.969Z,12.80
2023-04-18T20:15:00.903Z,12.90
2023-04-18T20:25:00.687Z,12.90
2023-04-18T20:34:59.836Z,12.90
2023-04-18T20:44:59.583Z,12.90
2023-04-18T20:54:58.862Z,13.00
2023-04-18T21:04:58.011Z,13.10
2023-04-18T21:14:56.852Z,13.10
2023-04-18T21:24:55.896Z,13.10
2023-04-18T21:34:57.316Z,13.10
2023-04-18T21:44:58.889Z,13.00
2023-04-18T21:54:58.822Z,13.00
2023-04-18T22:04:57.813Z,13.00
2023-04-18T22:14:56.955Z,13.00
2023-04-18T22:24:55.908Z,12.90
2023-04-18T22:34:54.941Z,12.80
2023-04-18T22:44:53.991Z,12.80
2023-04-18T22:54:52.798Z,12.80
2023-04-18T23:04:52.826Z,12.70
2023-04-18T23:14:51.958Z,12.70
2023-04-18T23:24:51.087Z,12.80
2023-04-18T23:34:50.763Z,12.80
2023-04-18T23:44:49.917Z,12.80
2023-04-18T23:54:49.092Z,12.80
